Accueil
METAR-TAF:

METAR-TAF

Aéroports :

Aéroport international de Wattay

Vientiane, Laos

latitude: 17-57N, longitude: 102-34E, altitude: 171 m

Observation

Le bulletin a été fait il y a 36 minutes, à 13:00 UTC
Vent 6 kt de est/nord-est
Température 26°C
Humidité 94%
Pression 1005 hPa
Visibilité: 5000 m
Nuages fragmentés à une hauteur de 4000 ft
Nuages fragmentés à une hauteur de 8300 ft
brume

METAR: VLVT 131300Z 06006KT 5000 BR BKN040 BKN083 26/25 Q1005 NOSIG

Heure: 20:36 (13:36 UTC)

Prévision

Le bulletin a été fait il y a 2 heures et 36 minutes, à 11:00 UTC
Prévision valable du 13 à 12 UTC au 14 à 12 UTC
Vent 4 kt de sud-ouest
Visibilité: 8000 m
Nuages épars à une hauteur de 1600 ft
Nuages épars à une hauteur de 4000 ft
Nuages fragmentés à une hauteur de 8300 ft

TAF: VLVT 131100Z 1312/1412 22004KT 8000 SCT016 SCT040 BKN083

Observations et prévisions météorologiques de plus de 4000 aéroports (messages METAR et TAF).

Les stations disponibles sont représentées par des disques jaunes et rouges sur la carte.

Passer la souris dessus pour voir le nom de la station.

Cliquer dessus pour voir les observations et prévisions météorologiques.

Pour changer de carte: cliquez sur les boutons verts avec une croix noire pour zoomer, sur le bouton vert avec un tiret pour effectuer un zoom arrière, ou sur les flèches vertes pour les cartes adjacentes.


METAR-TAF: